createdAt,value
2018-01-13T00:01:16.702Z,36.80
2018-01-13T00:03:42.643Z,36.73
2018-01-13T00:06:08.559Z,42.67
2018-01-13T00:08:34.474Z,42.97
2018-01-13T00:11:00.406Z,39.80
2018-01-13T00:13:26.395Z,40.87
2018-01-13T00:15:52.284Z,41.20
2018-01-13T00:18:18.192Z,35.60
2018-01-13T00:20:44.886Z,37.43
2018-01-13T00:23:10.817Z,35.70
2018-01-13T00:25:36.716Z,38.70
2018-01-13T00:28:02.651Z,42.40
2018-01-13T00:30:28.557Z,37.10
2018-01-13T00:32:54.480Z,40.57
2018-01-13T00:35:20.430Z,35.90
2018-01-13T00:37:46.348Z,35.30
2018-01-13T00:40:12.275Z,40.03
2018-01-13T00:42:38.266Z,37.73
2018-01-13T00:45:04.239Z,37.83
2018-01-13T00:47:30.210Z,40.63
2018-01-13T00:49:56.136Z,36.17
2018-01-13T00:52:22.049Z,39.43
2018-01-13T00:54:47.976Z,41.13
2018-01-13T00:57:13.872Z,35.53
2018-01-13T00:59:40.029Z,41.77
2018-01-13T01:02:05.938Z,36.60
2018-01-13T01:04:31.869Z,39.83
2018-01-13T01:06:57.810Z,39.67
2018-01-13T01:09:23.820Z,39.13
2018-01-13T01:11:50.545Z,41.10
2018-01-13T01:14:16.558Z,38.50
2018-01-13T01:16:42.897Z,41.13
2018-01-13T01:19:08.850Z,40.63
2018-01-13T01:21:34.778Z,95.57
2018-01-13T01:24:01.463Z,46.80
2018-01-13T01:26:27.391Z,63.90
2018-01-13T01:28:53.328Z,57.27
2018-01-13T01:31:19.279Z,59.30
2018-01-13T01:33:46.415Z,39.37
2018-01-13T01:36:13.270Z,39.70
2018-01-13T01:38:40.304Z,39.30
2018-01-13T01:41:06.241Z,94.87
2018-01-13T01:43:32.901Z,68.00
2018-01-13T01:45:58.824Z,62.90
2018-01-13T01:48:24.769Z,46.23
2018-01-13T01:50:50.709Z,38.07
2018-01-13T01:53:16.670Z,40.87
2018-01-13T01:55:42.603Z,39.63
2018-01-13T01:58:08.554Z,36.40
2018-01-13T02:00:34.626Z,46.23
2018-01-13T02:03:00.550Z,39.97
2018-01-13T02:05:26.471Z,42.60
2018-01-13T02:07:52.373Z,36.33
2018-01-13T02:10:19.198Z,37.23
2018-01-13T02:12:45.112Z,43.10
2018-01-13T02:15:11.074Z,41.03
2018-01-13T02:17:37.022Z,41.77
2018-01-13T02:20:02.998Z,40.37
2018-01-13T02:22:29.643Z,41.63
2018-01-13T02:24:55.639Z,37.17
2018-01-13T02:27:21.595Z,39.30
2018-01-13T02:29:47.491Z,39.87
2018-01-13T02:32:13.429Z,39.73
2018-01-13T02:34:39.358Z,41.77
2018-01-13T02:37:05.307Z,40.07
2018-01-13T02:39:31.238Z,39.00
2018-01-13T02:41:57.217Z,39.83
2018-01-13T02:44:23.153Z,42.63
2018-01-13T02:46:49.998Z,38.53
2018-01-13T02:49:16.649Z,35.43
2018-01-13T02:51:42.602Z,39.47
2018-01-13T02:54:08.521Z,37.37
2018-01-13T02:56:34.454Z,36.43
2018-01-13T02:59:01.115Z,41.70
2018-01-13T03:01:27.044Z,41.90
2018-01-13T03:03:52.953Z,41.77
2018-01-13T03:06:18.898Z,39.53
2018-01-13T03:08:44.806Z,44.53
2018-01-13T03:11:10.739Z,39.97
2018-01-13T03:13:36.670Z,37.40
2018-01-13T03:16:02.681Z,37.70
2018-01-13T03:18:28.590Z,41.27
2018-01-13T03:20:55.442Z,43.70
2018-01-13T03:23:21.396Z,35.43
2018-01-13T03:25:47.452Z,39.37
2018-01-13T03:28:14.114Z,35.80
2018-01-13T03:30:40.036Z,36.23
2018-01-13T03:33:05.956Z,37.27
2018-01-13T03:35:31.980Z,39.60
2018-01-13T03:37:57.899Z,34.93
2018-01-13T03:40:23.794Z,33.70
2018-01-13T03:42:50.458Z,33.90
2018-01-13T03:45:17.143Z,41.60
2018-01-13T03:47:43.069Z,38.87
2018-01-13T03:50:08.991Z,41.53
2018-01-13T03:52:34.928Z,36.27
2018-01-13T03:55:01.578Z,35.70
2018-01-13T03:57:27.720Z,38.40
2018-01-13T03:59:53.671Z,35.17
2018-01-13T04:02:19.649Z,35.00
2018-01-13T04:04:45.590Z,35.90
2018-01-13T04:07:11.513Z,37.53
2018-01-13T04:09:37.462Z,36.27
2018-01-13T04:12:03.400Z,37.67
2018-01-13T04:14:29.324Z,38.37
2018-01-13T04:16:55.242Z,37.07
2018-01-13T04:19:22.047Z,38.93
2018-01-13T04:21:47.962Z,37.80
2018-01-13T04:24:13.989Z,38.83
2018-01-13T04:26:40.646Z,37.70
2018-01-13T04:29:06.806Z,33.87
2018-01-13T04:31:32.809Z,36.83
2018-01-13T04:33:58.776Z,34.57
2018-01-13T04:36:24.723Z,35.70
2018-01-13T04:38:50.670Z,31.63
2018-01-13T04:41:16.588Z,33.37
2018-01-13T04:43:42.503Z,34.10
2018-01-13T04:46:08.434Z,36.20
2018-01-13T04:48:34.883Z,33.27
2018-01-13T04:51:01.581Z,32.50
2018-01-13T04:53:27.514Z,28.73
2018-01-13T04:55:53.431Z,34.97
2018-01-13T04:58:20.075Z,30.73
2018-01-13T05:00:46.002Z,33.77
2018-01-13T05:03:11.931Z,30.70
2018-01-13T05:05:37.826Z,36.10
2018-01-13T05:08:03.723Z,32.33
2018-01-13T05:10:29.738Z,33.20
2018-01-13T05:12:55.648Z,31.90
2018-01-13T05:15:21.610Z,28.93
2018-01-13T05:17:47.539Z,33.30
2018-01-13T05:20:13.473Z,27.80
2018-01-13T05:22:39.683Z,30.80
2018-01-13T05:25:05.615Z,35.67
2018-01-13T05:27:31.540Z,33.23
2018-01-13T05:29:57.492Z,37.20
2018-01-13T05:32:23.479Z,33.20
2018-01-13T05:34:49.408Z,34.47
2018-01-13T05:37:15.367Z,39.13
2018-01-13T05:39:41.349Z,36.23
2018-01-13T05:42:07.288Z,37.20
2018-01-13T05:44:33.226Z,35.17
2018-01-13T05:46:59.147Z,46.83
2018-01-13T05:49:25.116Z,43.73
2018-01-13T05:51:51.069Z,38.37
2018-01-13T05:54:17.738Z,41.77
2018-01-13T05:56:43.653Z,40.17
2018-01-13T05:59:09.726Z,35.63
2018-01-13T06:01:35.677Z,43.17
2018-01-13T06:04:02.430Z,38.83
2018-01-13T06:06:28.376Z,35.50
2018-01-13T06:08:54.326Z,41.97
2018-01-13T06:11:20.235Z,37.00
2018-01-13T06:13:46.156Z,32.87
2018-01-13T06:16:12.079Z,31.40
2018-01-13T06:18:38.114Z,35.57
2018-01-13T06:21:04.074Z,38.50
2018-01-13T06:23:29.998Z,37.87
2018-01-13T06:25:55.923Z,36.23
2018-01-13T06:28:21.884Z,35.20
2018-01-13T06:30:47.810Z,31.43
2018-01-13T06:33:13.741Z,33.57
2018-01-13T06:35:39.646Z,31.90
2018-01-13T06:38:05.558Z,32.83
2018-01-13T06:40:31.459Z,35.70
2018-01-13T06:42:58.136Z,40.27
2018-01-13T06:45:24.807Z,35.10
2018-01-13T06:47:50.728Z,37.60
2018-01-13T06:50:16.618Z,36.90
2018-01-13T06:52:42.536Z,38.47
2018-01-13T06:55:08.497Z,36.67
2018-01-13T06:57:34.480Z,38.80
2018-01-13T07:00:00.391Z,40.07
2018-01-13T07:02:26.334Z,36.37
2018-01-13T07:04:52.993Z,37.83
2018-01-13T07:07:18.916Z,36.07
2018-01-13T07:09:44.837Z,40.00
2018-01-13T07:12:10.781Z,43.07
2018-01-13T07:14:36.749Z,39.57
2018-01-13T07:17:02.652Z,43.10
2018-01-13T07:19:28.572Z,39.23
2018-01-13T07:21:54.518Z,35.53
2018-01-13T07:24:21.207Z,36.43
2018-01-13T07:26:47.138Z,36.40
2018-01-13T07:29:13.054Z,42.40
2018-01-13T07:31:38.958Z,36.93
2018-01-13T07:34:04.955Z,39.13
2018-01-13T07:36:30.854Z,37.47
2018-01-13T07:38:57.544Z,36.30
2018-01-13T07:41:23.484Z,41.03
2018-01-13T07:43:49.478Z,42.30
2018-01-13T07:46:15.395Z,38.07
2018-01-13T07:48:42.298Z,43.57
2018-01-13T07:51:08.969Z,42.13
2018-01-13T07:53:34.863Z,38.03
2018-01-13T07:56:01.852Z,39.53
2018-01-13T07:58:27.766Z,37.53
2018-01-13T08:00:53.711Z,37.17
2018-01-13T08:03:19.943Z,38.63
2018-01-13T08:05:45.946Z,36.93
2018-01-13T08:08:11.886Z,34.03
2018-01-13T08:10:37.819Z,31.23
2018-01-13T08:13:03.739Z,38.50
2018-01-13T08:15:29.681Z,35.27
2018-01-13T08:17:55.618Z,48.03
2018-01-13T08:20:21.538Z,46.60
2018-01-13T08:22:47.459Z,40.63
2018-01-13T08:25:14.071Z,39.83
2018-01-13T08:27:40.728Z,39.03
2018-01-13T08:30:06.710Z,37.07
2018-01-13T08:32:33.634Z,37.23
2018-01-13T08:35:00.196Z,42.23
2018-01-13T08:37:26.675Z,53.70
2018-01-13T08:39:52.596Z,61.13
2018-01-13T08:42:18.504Z,44.27
2018-01-13T08:44:44.475Z,42.23
2018-01-13T08:47:10.383Z,44.60
2018-01-13T08:49:36.302Z,39.43
2018-01-13T08:52:02.413Z,44.50
2018-01-13T08:54:28.416Z,37.33
2018-01-13T08:56:55.514Z,66.73
2018-01-13T08:59:21.611Z,43.77
2018-01-13T09:01:50.444Z,44.57
2018-01-13T09:04:17.468Z,38.63
2018-01-13T09:06:43.513Z,39.23
2018-01-13T09:09:09.437Z,41.27
2018-01-13T09:11:35.496Z,38.10
2018-01-13T09:14:01.455Z,39.63
2018-01-13T09:16:27.499Z,39.03
2018-01-13T09:18:53.558Z,43.17
2018-01-13T09:21:21.019Z,49.33
2018-01-13T09:23:47.869Z,37.93
2018-01-13T09:26:13.875Z,53.77
2018-01-13T09:28:39.874Z,41.40
2018-01-13T09:31:05.841Z,44.37
2018-01-13T09:33:31.877Z,41.97
2018-01-13T09:35:58.654Z,35.93
2018-01-13T09:38:25.279Z,32.87
2018-01-13T09:40:52.115Z,38.33
2018-01-13T09:43:22.150Z,33.17
2018-01-13T09:48:19.455Z,35.17
2018-01-13T09:50:45.406Z,29.93
2018-01-13T09:53:11.379Z,33.60
2018-01-13T09:55:38.145Z,32.70
2018-01-13T09:58:04.151Z,31.67
2018-01-13T10:00:30.382Z,31.13
2018-01-13T10:02:57.254Z,32.97
2018-01-13T10:05:23.328Z,36.77
2018-01-13T10:07:52.148Z,31.47
2018-01-13T10:10:19.979Z,31.47
2018-01-13T10:12:46.204Z,33.93
2018-01-13T10:15:15.595Z,29.90
2018-01-13T10:17:41.840Z,30.30
2018-01-13T10:20:07.775Z,27.90
2018-01-13T10:22:34.112Z,32.10
2018-01-13T10:25:00.153Z,29.60
2018-01-13T10:27:28.845Z,30.97
2018-01-13T10:29:54.787Z,24.53
2018-01-13T10:32:20.770Z,31.80
2018-01-13T10:34:47.321Z,30.70
2018-01-13T10:37:13.882Z,25.53
2018-01-13T10:39:40.110Z,28.77
2018-01-13T10:42:06.110Z,29.23
2018-01-13T10:44:33.100Z,28.37
2018-01-13T10:46:59.800Z,32.00
2018-01-13T10:49:26.629Z,30.90
2018-01-13T10:51:53.578Z,26.73
2018-01-13T10:54:19.622Z,25.87
2018-01-13T10:56:45.490Z,29.60
2018-01-13T10:59:11.415Z,23.20
2018-01-13T11:01:38.335Z,31.03
2018-01-13T11:04:04.342Z,25.93
2018-01-13T11:06:30.350Z,25.80
2018-01-13T11:08:58.069Z,24.77
2018-01-13T11:11:24.016Z,23.67
2018-01-13T11:13:50.758Z,28.33
2018-01-13T11:16:18.418Z,29.80
2018-01-13T11:18:45.096Z,23.93
2018-01-13T11:21:11.080Z,24.60
2018-01-13T11:23:37.014Z,25.83
2018-01-13T11:26:03.098Z,25.37
2018-01-13T11:28:29.110Z,24.73
2018-01-13T11:30:55.071Z,22.80
2018-01-13T11:33:21.937Z,24.73
2018-01-13T11:35:49.526Z,24.23
2018-01-13T11:38:15.622Z,27.83
2018-01-13T11:40:41.617Z,26.07
2018-01-13T11:43:08.354Z,25.60
2018-01-13T11:45:35.238Z,23.43
2018-01-13T11:48:01.188Z,27.70
2018-01-13T11:50:27.920Z,27.23
2018-01-13T11:52:53.847Z,25.20
2018-01-13T11:55:20.251Z,23.70
2018-01-13T11:57:47.220Z,26.27
2018-01-13T12:00:17.445Z,31.30
2018-01-13T12:02:47.076Z,25.37
2018-01-13T12:05:13.034Z,27.27
2018-01-13T12:07:39.666Z,28.17
2018-01-13T12:10:06.244Z,26.67
2018-01-13T12:12:32.237Z,27.87
2018-01-13T12:14:59.575Z,30.70
2018-01-13T12:17:25.534Z,28.57
2018-01-13T12:19:52.343Z,30.80
2018-01-13T12:22:19.285Z,24.73
2018-01-13T12:24:45.210Z,26.70
2018-01-13T12:27:12.662Z,26.67
2018-01-13T12:29:39.353Z,24.60
2018-01-13T12:32:05.444Z,26.57
2018-01-13T12:34:31.382Z,26.83
2018-01-13T12:36:57.367Z,25.30
2018-01-13T12:39:25.652Z,26.97
2018-01-13T12:41:53.202Z,28.50
2018-01-13T12:44:19.173Z,29.63
2018-01-13T12:46:45.144Z,28.77
2018-01-13T12:49:11.070Z,29.97
2018-01-13T12:51:39.766Z,37.83
2018-01-13T12:54:06.032Z,24.50
2018-01-13T12:56:32.951Z,30.00
2018-01-13T12:58:58.930Z,30.47
2018-01-13T13:01:24.825Z,29.50
2018-01-13T13:03:50.747Z,32.70
2018-01-13T13:06:18.504Z,29.30
2018-01-13T13:08:44.489Z,34.63
2018-01-13T13:11:10.937Z,25.77
2018-01-13T13:13:38.359Z,31.53
2018-01-13T13:16:04.420Z,28.40
2018-01-13T13:18:31.172Z,25.57
2018-01-13T13:20:57.126Z,28.93
2018-01-13T13:25:54.852Z,28.93
2018-01-13T13:28:20.814Z,30.90
2018-01-13T13:30:47.597Z,32.00
2018-01-13T13:33:16.031Z,31.40
2018-01-13T13:35:42.695Z,31.10
2018-01-13T13:38:11.218Z,25.43
2018-01-13T13:40:37.158Z,27.27
2018-01-13T13:43:04.139Z,30.70
2018-01-13T13:45:30.613Z,29.77
2018-01-13T13:47:57.191Z,30.13
2018-01-13T13:50:23.197Z,31.87
2018-01-13T13:52:49.887Z,32.73
2018-01-13T13:55:16.531Z,30.67
2018-01-13T13:57:43.470Z,30.27
2018-01-13T14:00:10.742Z,27.83
2018-01-13T14:02:37.542Z,31.23
2018-01-13T14:05:03.909Z,27.80
2018-01-13T14:07:30.902Z,27.70
2018-01-13T14:10:01.148Z,29.93
2018-01-13T14:12:24.970Z,27.77
2018-01-13T14:14:51.435Z,30.73
2018-01-13T14:17:17.401Z,29.00
2018-01-13T14:19:44.769Z,30.60
2018-01-13T14:22:11.538Z,27.73
2018-01-13T14:24:38.130Z,27.00
2018-01-13T14:27:04.379Z,27.13
2018-01-13T14:29:32.863Z,29.43
2018-01-13T14:32:01.754Z,25.27
2018-01-13T14:34:30.802Z,24.27
2018-01-13T14:36:56.754Z,25.27
2018-01-13T14:39:23.269Z,26.33
2018-01-13T14:41:49.918Z,26.00
2018-01-13T14:44:16.078Z,20.73
2018-01-13T14:46:43.557Z,24.80
2018-01-13T14:49:10.022Z,22.30
2018-01-13T14:54:07.330Z,24.50
2018-01-13T14:56:34.902Z,25.37
2018-01-13T14:59:04.709Z,25.93
2018-01-13T15:01:30.702Z,24.47
2018-01-13T15:03:57.371Z,29.80
2018-01-13T15:06:25.352Z,25.10
2018-01-13T15:08:52.838Z,28.90
2018-01-13T15:11:22.570Z,21.63
2018-01-13T15:13:48.563Z,27.90
2018-01-13T15:16:14.493Z,24.67
2018-01-13T15:18:40.425Z,26.43
2018-01-13T15:21:06.691Z,24.70
2018-01-13T15:23:32.737Z,24.63
2018-01-13T15:25:59.254Z,23.10
2018-01-13T15:28:25.826Z,24.77
2018-01-13T15:30:52.509Z,23.77
2018-01-13T15:33:20.111Z,21.73
2018-01-13T15:35:46.749Z,22.63
2018-01-13T15:38:12.974Z,26.17
2018-01-13T15:40:41.755Z,27.00
2018-01-13T15:43:07.906Z,23.60
2018-01-13T15:45:34.771Z,28.33
2018-01-13T15:48:04.957Z,26.80
2018-01-13T15:50:30.897Z,26.47
2018-01-13T15:52:56.827Z,25.73
2018-01-13T15:55:25.167Z,30.37
2018-01-13T15:57:51.523Z,26.90
2018-01-13T16:00:19.876Z,26.93
2018-01-13T16:02:46.558Z,27.67
2018-01-13T16:05:13.466Z,24.07
2018-01-13T16:07:39.429Z,33.97
2018-01-13T16:10:05.964Z,28.87
2018-01-13T16:12:34.707Z,26.30
2018-01-13T16:15:00.907Z,26.70
2018-01-13T16:17:29.246Z,32.00
2018-01-13T16:19:57.067Z,29.30
2018-01-13T16:22:25.107Z,31.80
2018-01-13T16:24:52.057Z,28.20
2018-01-13T16:27:18.838Z,28.70
2018-01-13T16:29:44.797Z,29.53
2018-01-13T16:32:10.873Z,28.00
2018-01-13T16:34:37.568Z,29.43
2018-01-13T16:37:05.068Z,32.30
2018-01-13T16:39:31.994Z,33.57
2018-01-13T16:41:58.254Z,26.80
2018-01-13T16:44:26.901Z,28.33
2018-01-13T16:46:52.887Z,26.30
2018-01-13T16:49:19.247Z,29.60
2018-01-13T16:51:46.218Z,29.37
2018-01-13T16:54:12.759Z,31.03
2018-01-13T16:56:39.033Z,31.97
2018-01-13T16:59:06.051Z,32.47
2018-01-13T17:01:33.163Z,25.53
2018-01-13T17:04:02.582Z,32.50
2018-01-13T17:06:29.714Z,31.33
2018-01-13T17:08:57.278Z,45.83
2018-01-13T17:11:23.274Z,29.00
2018-01-13T17:13:49.304Z,29.50
2018-01-13T17:16:15.306Z,34.77
2018-01-13T17:18:41.524Z,28.53
2018-01-13T17:21:07.543Z,33.70
2018-01-13T17:23:34.574Z,35.03
2018-01-13T17:26:00.967Z,32.37
2018-01-13T17:28:27.947Z,28.97
2018-01-13T17:33:30.798Z,33.20
2018-01-13T17:35:57.831Z,35.73
2018-01-13T17:38:26.098Z,39.90
2018-01-13T17:40:52.620Z,33.20
2018-01-13T17:43:18.583Z,31.23
2018-01-13T17:50:55.023Z,29.03
2018-01-13T17:55:53.386Z,33.67
2018-01-13T17:58:22.276Z,28.73
2018-01-13T18:05:52.401Z,32.13
2018-01-13T18:08:19.021Z,29.20
2018-01-13T18:13:18.587Z,30.40
2018-01-13T18:15:44.761Z,31.87
2018-01-13T18:18:12.489Z,34.27
2018-01-13T18:23:12.416Z,28.70
2018-01-13T18:25:40.883Z,28.00
2018-01-13T18:28:08.731Z,35.37
2018-01-13T18:30:36.229Z,28.83
2018-01-13T18:33:07.582Z,29.60
2018-01-13T18:35:34.379Z,28.77
2018-01-13T18:38:03.591Z,30.67
2018-01-13T18:40:31.885Z,29.87
2018-01-13T18:42:58.773Z,26.20
2018-01-13T18:45:24.911Z,30.27
2018-01-13T18:47:55.220Z,25.97
2018-01-13T18:52:57.998Z,25.40
2018-01-13T18:55:25.524Z,26.60
2018-01-13T19:00:25.231Z,25.93
2018-01-13T19:02:52.796Z,21.53
2018-01-13T19:05:25.018Z,30.10
2018-01-13T19:07:52.328Z,27.23
2018-01-13T19:10:20.493Z,24.63
2018-01-13T19:12:47.548Z,25.87
2018-01-13T19:15:13.618Z,26.30
2018-01-13T19:17:40.621Z,27.37
2018-01-13T19:20:08.599Z,26.57
2018-01-13T19:22:37.168Z,23.93
2018-01-13T19:25:06.557Z,26.27
2018-01-13T19:27:35.259Z,25.50
2018-01-13T19:30:03.895Z,26.07
2018-01-13T19:32:31.212Z,26.23
2018-01-13T19:34:57.828Z,25.80
2018-01-13T19:37:27.553Z,34.80
2018-01-13T19:39:57.147Z,30.20
2018-01-13T19:42:24.039Z,26.57
2018-01-13T19:44:50.124Z,24.60
2018-01-13T19:47:17.053Z,22.00
2018-01-13T19:49:44.926Z,30.37
2018-01-13T19:52:11.827Z,22.10
2018-01-13T19:54:37.927Z,19.77
2018-01-13T19:57:05.124Z,21.97
2018-01-13T19:59:31.519Z,25.63
2018-01-13T20:02:02.120Z,23.13
2018-01-13T20:04:28.979Z,27.47
2018-01-13T20:06:56.657Z,23.63
2018-01-13T20:09:22.723Z,22.67
2018-01-13T20:11:51.418Z,24.03
2018-01-13T20:14:17.478Z,24.87
2018-01-13T20:16:43.788Z,31.60
2018-01-13T20:19:12.157Z,27.53
2018-01-13T20:21:38.233Z,27.00
2018-01-13T20:26:36.496Z,21.20
2018-01-13T20:29:02.745Z,21.57
2018-01-13T20:31:29.360Z,24.70
2018-01-13T20:33:55.875Z,25.13
2018-01-13T20:38:53.276Z,25.50
2018-01-13T20:43:52.839Z,29.17
2018-01-13T20:46:19.597Z,42.73
2018-01-13T20:48:45.628Z,24.30
2018-01-13T20:51:12.501Z,30.20
2018-01-13T20:53:39.599Z,30.00
2018-01-13T20:56:05.911Z,27.57
2018-01-13T20:58:32.486Z,24.70
2018-01-13T21:01:00.072Z,22.57
2018-01-13T21:03:27.595Z,24.73
2018-01-13T21:05:56.714Z,22.77
2018-01-13T21:08:23.106Z,26.00
2018-01-13T21:10:50.800Z,29.70
2018-01-13T21:13:18.948Z,25.80
2018-01-13T21:15:45.283Z,27.03
2018-01-13T21:18:12.218Z,29.93
2018-01-13T21:23:09.179Z,24.43
2018-01-13T21:25:36.469Z,28.00
2018-01-13T21:28:05.358Z,27.70
2018-01-13T21:30:33.986Z,24.67
2018-01-13T21:35:32.209Z,23.93
2018-01-13T21:38:00.144Z,22.53
2018-01-13T21:40:27.120Z,22.40
2018-01-13T21:42:53.354Z,22.23
2018-01-13T21:50:26.251Z,23.50
2018-01-13T21:52:52.742Z,24.30
2018-01-13T21:55:20.157Z,23.17
2018-01-13T21:57:48.616Z,22.50
2018-01-13T22:00:14.710Z,22.97
2018-01-13T22:02:40.966Z,22.10
2018-01-13T22:05:09.395Z,26.23
2018-01-13T22:07:36.952Z,25.30
2018-01-13T22:10:05.881Z,27.50
2018-01-13T22:12:32.681Z,25.90
2018-01-13T22:15:00.863Z,31.80
2018-01-13T22:17:29.576Z,23.67
2018-01-13T22:19:58.444Z,58.10
2018-01-13T22:22:30.383Z,40.07
2018-01-13T22:24:57.616Z,50.33
2018-01-13T22:29:55.854Z,29.90
2018-01-13T22:32:22.052Z,28.27
2018-01-13T22:34:50.083Z,26.97
2018-01-13T22:37:18.732Z,24.63
2018-01-13T22:39:45.154Z,27.60
2018-01-13T22:42:13.648Z,26.70
2018-01-13T22:44:40.351Z,30.57
2018-01-13T22:47:06.802Z,27.10
2018-01-13T22:49:32.991Z,27.47
2018-01-13T22:52:01.128Z,26.30
2018-01-13T22:54:27.221Z,25.33
2018-01-13T22:56:54.202Z,27.83
2018-01-13T22:59:20.167Z,31.00
2018-01-13T23:01:47.005Z,27.10
2018-01-13T23:04:17.094Z,30.07
2018-01-13T23:06:43.269Z,24.00
2018-01-13T23:09:09.458Z,28.63
2018-01-13T23:11:35.466Z,29.77
2018-01-13T23:14:01.442Z,26.67
2018-01-13T23:16:28.135Z,31.03
2018-01-13T23:18:55.135Z,25.17
2018-01-13T23:21:22.455Z,26.20
2018-01-13T23:23:48.406Z,23.63
2018-01-13T23:26:14.368Z,26.17
2018-01-13T23:28:41.343Z,28.40
2018-01-13T23:31:08.032Z,25.27
2018-01-13T23:33:33.987Z,24.80
2018-01-13T23:35:59.976Z,25.27
2018-01-13T23:38:26.997Z,25.67
2018-01-13T23:40:52.922Z,26.50
2018-01-13T23:43:19.072Z,22.87
2018-01-13T23:45:45.316Z,24.17
2018-01-13T23:48:11.196Z,26.97
2018-01-13T23:50:37.126Z,24.90
2018-01-13T23:53:04.779Z,19.10
2018-01-13T23:55:30.889Z,28.00
2018-01-13T23:57:56.821Z,27.50
